createdAt,value
2018-03-26T00:02:07.466Z,68.13
2018-03-26T00:04:34.979Z,68.93
2018-03-26T00:07:03.292Z,71.27
2018-03-26T00:09:30.799Z,71.13
2018-03-26T00:11:58.340Z,72.50
2018-03-26T00:14:25.802Z,72.73
2018-03-26T00:16:53.289Z,70.33
2018-03-26T00:19:20.802Z,70.33
2018-03-26T00:21:48.300Z,71.33
2018-03-26T00:24:15.809Z,69.10
2018-03-26T00:26:43.282Z,70.27
2018-03-26T00:29:10.766Z,62.33
2018-03-26T00:31:38.308Z,67.47
2018-03-26T00:34:05.780Z,62.90
2018-03-26T00:36:33.309Z,71.23
2018-03-26T00:39:01.564Z,65.13
2018-03-26T00:41:29.128Z,67.27
2018-03-26T00:43:57.360Z,66.13
2018-03-26T00:46:24.884Z,67.83
2018-03-26T00:48:53.261Z,68.13
2018-03-26T00:51:20.749Z,67.03
2018-03-26T00:53:48.215Z,84.63
2018-03-26T00:56:16.002Z,76.97
2018-03-26T00:58:43.485Z,82.97
2018-03-26T01:01:10.997Z,77.67
2018-03-26T01:03:39.234Z,77.70
2018-03-26T01:06:06.732Z,81.27
2018-03-26T01:08:34.210Z,82.97
2018-03-26T01:11:01.724Z,86.93
2018-03-26T01:13:29.232Z,91.40
2018-03-26T01:15:57.821Z,86.27
2018-03-26T01:18:25.351Z,97.90
2018-03-26T01:20:52.841Z,89.37
2018-03-26T01:23:20.344Z,95.17
2018-03-26T01:25:47.994Z,102.67
2018-03-26T01:28:15.564Z,98.50
2018-03-26T01:30:43.237Z,95.30
2018-03-26T01:33:10.915Z,87.20
2018-03-26T01:35:38.422Z,96.87
2018-03-26T01:38:05.934Z,96.07
2018-03-26T01:40:33.487Z,107.03
2018-03-26T01:43:00.909Z,108.00
2018-03-26T01:45:28.433Z,101.43
2018-03-26T01:47:55.912Z,114.40
2018-03-26T01:50:23.424Z,115.27
2018-03-26T01:52:50.912Z,101.07
2018-03-26T01:55:18.399Z,106.73
2018-03-26T01:57:45.895Z,117.10
2018-03-26T02:00:14.243Z,114.50
2018-03-26T02:02:41.679Z,113.47
2018-03-26T02:05:09.162Z,120.17
2018-03-26T02:07:36.697Z,128.90
2018-03-26T02:10:04.171Z,142.17
2018-03-26T02:12:31.689Z,131.73
2018-03-26T02:14:59.938Z,121.80
2018-03-26T02:17:27.495Z,135.13
2018-03-26T02:19:55.604Z,126.60
2018-03-26T02:22:23.118Z,135.13
2018-03-26T02:24:51.509Z,131.57
2018-03-26T02:27:19.424Z,121.53
2018-03-26T02:29:47.707Z,116.23
2018-03-26T02:32:15.211Z,131.43
2018-03-26T02:34:42.684Z,128.30
2018-03-26T02:37:10.179Z,113.63
2018-03-26T02:39:38.064Z,106.50
2018-03-26T02:42:05.569Z,104.30
2018-03-26T02:44:33.041Z,105.30
2018-03-26T02:47:00.535Z,101.10
2018-03-26T02:49:28.015Z,103.43
2018-03-26T02:51:55.643Z,102.07
2018-03-26T02:54:23.154Z,103.93
2018-03-26T02:56:50.674Z,85.43
2018-03-26T02:59:18.124Z,94.73
2018-03-26T03:01:45.626Z,97.57
2018-03-26T03:04:13.136Z,98.67
2018-03-26T03:06:40.625Z,85.30
2018-03-26T03:09:08.156Z,83.47
2018-03-26T03:11:35.710Z,87.90
2018-03-26T03:14:03.138Z,84.10
2018-03-26T03:16:30.629Z,84.33
2018-03-26T03:18:58.090Z,81.13
2018-03-26T03:21:25.626Z,84.97
2018-03-26T03:23:53.038Z,93.13
2018-03-26T03:26:20.627Z,90.33
2018-03-26T03:28:48.119Z,83.33
2018-03-26T03:31:15.667Z,88.67
2018-03-26T03:33:43.143Z,88.40
2018-03-26T03:36:10.561Z,94.13
2018-03-26T03:38:38.059Z,88.57
2018-03-26T03:41:05.617Z,93.90
2018-03-26T03:43:33.096Z,86.07
2018-03-26T03:46:00.596Z,95.80
2018-03-26T03:48:28.092Z,97.50
2018-03-26T03:50:55.697Z,95.90
2018-03-26T03:53:23.263Z,93.83
2018-03-26T03:55:51.792Z,92.37
2018-03-26T03:58:19.256Z,93.77
2018-03-26T04:00:46.729Z,93.77
2018-03-26T04:03:14.222Z,90.73
2018-03-26T04:05:41.735Z,91.47
2018-03-26T04:08:09.230Z,92.67
2018-03-26T04:10:36.718Z,96.53
2018-03-26T04:13:04.234Z,104.40
2018-03-26T04:15:31.712Z,97.23
2018-03-26T04:17:59.215Z,95.37
2018-03-26T04:20:26.662Z,101.37
2018-03-26T04:22:54.160Z,99.40
2018-03-26T04:25:21.627Z,112.23
2018-03-26T04:27:49.117Z,94.63
2018-03-26T04:30:16.622Z,99.10
2018-03-26T04:32:44.142Z,102.37
2018-03-26T04:35:11.640Z,98.30
2018-03-26T04:37:39.114Z,114.63
2018-03-26T04:40:06.634Z,99.97
2018-03-26T04:42:34.130Z,112.70
2018-03-26T04:45:01.649Z,107.17
2018-03-26T04:47:29.129Z,96.97
2018-03-26T04:49:56.647Z,101.03
2018-03-26T04:52:24.923Z,96.63
2018-03-26T04:54:53.206Z,106.40
2018-03-26T04:57:21.572Z,98.43
2018-03-26T04:59:49.053Z,107.50
2018-03-26T05:02:16.573Z,104.10
2018-03-26T05:04:44.253Z,107.17
2018-03-26T05:07:11.702Z,109.63
2018-03-26T05:09:40.001Z,100.30
2018-03-26T05:12:07.498Z,93.27
2018-03-26T05:14:35.749Z,104.13
2018-03-26T05:17:03.431Z,109.33
2018-03-26T05:19:32.487Z,109.60
2018-03-26T05:21:59.991Z,101.07
2018-03-26T05:24:27.718Z,115.40
2018-03-26T05:26:55.202Z,113.83
2018-03-26T05:29:22.739Z,104.00
2018-03-26T05:31:50.389Z,100.67
2018-03-26T05:34:19.417Z,115.90
2018-03-26T05:36:47.184Z,101.07
2018-03-26T05:39:14.680Z,102.13
2018-03-26T05:41:42.989Z,115.23
2018-03-26T05:44:10.482Z,108.20
2018-03-26T05:46:37.936Z,99.13
2018-03-26T05:49:05.452Z,104.73
2018-03-26T05:51:33.732Z,107.63
2018-03-26T05:54:01.200Z,104.00
2018-03-26T05:56:28.784Z,95.77
2018-03-26T05:58:56.289Z,107.00
2018-03-26T06:01:23.801Z,104.37
2018-03-26T06:03:51.469Z,100.40
2018-03-26T06:06:19.684Z,92.23
2018-03-26T06:08:47.213Z,95.40
2018-03-26T06:11:15.472Z,97.87
2018-03-26T06:13:43.745Z,91.23
2018-03-26T06:16:11.204Z,107.53
2018-03-26T06:18:38.710Z,90.60
2018-03-26T06:21:06.174Z,100.20
2018-03-26T06:23:33.679Z,91.97
2018-03-26T06:26:01.176Z,94.27
2018-03-26T06:28:28.686Z,83.63
2018-03-26T06:30:56.176Z,84.80
2018-03-26T06:33:23.756Z,89.23
2018-03-26T06:35:51.220Z,79.00
2018-03-26T06:38:19.574Z,91.87
2018-03-26T06:40:46.974Z,83.50
2018-03-26T06:43:14.502Z,85.80
2018-03-26T06:45:42.995Z,88.47
2018-03-26T06:48:10.457Z,86.40
2018-03-26T06:50:37.920Z,92.10
2018-03-26T06:53:06.230Z,87.50
2018-03-26T06:55:33.805Z,90.60
2018-03-26T06:58:01.312Z,89.23
2018-03-26T07:00:28.897Z,89.93
2018-03-26T07:02:56.479Z,84.90
2018-03-26T07:05:24.047Z,90.33
2018-03-26T07:07:51.657Z,79.33
2018-03-26T07:10:19.883Z,71.60
2018-03-26T07:12:48.156Z,69.87
2018-03-26T07:15:16.475Z,78.07
2018-03-26T07:17:44.743Z,72.80
2018-03-26T07:20:12.213Z,67.03
2018-03-26T07:22:39.766Z,70.60
2018-03-26T07:25:07.236Z,62.13
2018-03-26T07:27:34.750Z,72.00
2018-03-26T07:30:02.266Z,62.40
2018-03-26T07:32:29.821Z,77.43
2018-03-26T07:34:57.332Z,66.57
2018-03-26T07:37:24.842Z,57.83
2018-03-26T07:39:53.090Z,62.00
2018-03-26T07:42:20.576Z,54.67
2018-03-26T07:44:48.899Z,60.80
2018-03-26T07:47:16.402Z,62.17
2018-03-26T07:49:43.923Z,71.27
2018-03-26T07:52:11.506Z,52.27
2018-03-26T07:54:39.693Z,56.07
2018-03-26T07:57:07.186Z,60.10
2018-03-26T07:59:35.485Z,59.23
2018-03-26T08:02:02.992Z,47.13
2018-03-26T08:04:30.426Z,48.70
2018-03-26T08:06:58.007Z,49.30
2018-03-26T08:09:26.320Z,46.07
2018-03-26T08:11:53.840Z,51.33
2018-03-26T08:14:21.340Z,41.73
2018-03-26T08:16:48.907Z,44.80
2018-03-26T08:19:16.344Z,51.57
2018-03-26T08:21:43.837Z,43.23
2018-03-26T08:24:11.416Z,36.43
2018-03-26T08:26:38.858Z,38.73
2018-03-26T08:29:06.432Z,38.23
2018-03-26T08:31:33.946Z,43.10
2018-03-26T08:34:01.497Z,29.90
2018-03-26T08:36:28.978Z,27.57
2018-03-26T08:38:56.975Z,28.00
2018-03-26T08:41:24.442Z,25.93
2018-03-26T08:43:52.469Z,28.43
2018-03-26T08:46:20.981Z,35.17
2018-03-26T08:48:49.569Z,27.30
2018-03-26T08:51:17.450Z,26.10
2018-03-26T08:53:44.954Z,25.50
2018-03-26T08:56:13.258Z,29.93
2018-03-26T08:58:41.546Z,19.83
2018-03-26T09:01:09.011Z,17.37
2018-03-26T09:03:36.597Z,14.87
2018-03-26T09:06:04.053Z,22.80
2018-03-26T09:08:31.579Z,12.53
2018-03-26T09:10:59.864Z,12.13
2018-03-26T09:13:27.346Z,10.23
2018-03-26T09:15:55.288Z,14.70
2018-03-26T09:18:23.837Z,19.70
2018-03-26T09:20:51.278Z,16.03
2018-03-26T09:23:19.137Z,13.37
2018-03-26T09:25:46.547Z,8.83
2018-03-26T09:28:14.089Z,14.73
2018-03-26T09:30:41.576Z,10.37
2018-03-26T09:33:09.133Z,11.30
2018-03-26T09:35:36.655Z,12.57
2018-03-26T09:38:04.131Z,8.80
2018-03-26T09:40:32.324Z,4.53
2018-03-26T09:43:00.542Z,11.43
2018-03-26T09:45:28.830Z,9.10
2018-03-26T09:47:57.123Z,8.30
2018-03-26T09:50:24.660Z,13.90
2018-03-26T09:52:52.935Z,7.97
2018-03-26T09:55:21.216Z,5.33
2018-03-26T09:57:49.513Z,7.90
2018-03-26T10:00:18.614Z,7.67
2018-03-26T10:02:47.015Z,7.30
2018-03-26T10:05:15.500Z,9.27
2018-03-26T10:07:43.070Z,10.30
2018-03-26T10:10:10.517Z,11.53
2018-03-26T10:12:38.796Z,5.87
2018-03-26T10:15:07.088Z,9.87
2018-03-26T10:17:34.586Z,6.97
2018-03-26T10:20:02.124Z,8.33
2018-03-26T10:22:29.678Z,6.73
2018-03-26T10:24:57.856Z,7.03
2018-03-26T10:27:25.345Z,6.17
2018-03-26T10:29:52.886Z,13.33
2018-03-26T10:32:20.386Z,9.40
2018-03-26T10:34:47.921Z,7.40
2018-03-26T10:37:15.379Z,11.63
2018-03-26T10:39:42.912Z,6.77
2018-03-26T10:42:10.396Z,7.90
2018-03-26T10:44:37.907Z,5.00
2018-03-26T10:47:05.408Z,7.27
2018-03-26T10:49:33.654Z,6.83
2018-03-26T10:52:01.172Z,15.70
2018-03-26T10:54:28.652Z,5.60
2018-03-26T10:56:56.544Z,4.23
2018-03-26T10:59:24.062Z,4.50
2018-03-26T11:01:51.617Z,8.67
2018-03-26T11:04:19.093Z,8.00
2018-03-26T11:06:46.619Z,3.47
2018-03-26T11:09:14.098Z,5.50
2018-03-26T11:11:42.891Z,5.13
2018-03-26T11:14:10.434Z,2.27
2018-03-26T11:16:37.933Z,3.30
2018-03-26T11:19:05.408Z,3.30
2018-03-26T11:21:32.902Z,2.87
2018-03-26T11:24:00.424Z,4.57
2018-03-26T11:26:27.974Z,4.43
2018-03-26T11:28:55.522Z,5.40
2018-03-26T11:31:23.011Z,3.83
2018-03-26T11:33:51.421Z,3.80
2018-03-26T11:36:19.689Z,3.30
2018-03-26T11:38:47.117Z,3.00
2018-03-26T11:41:14.635Z,3.87
2018-03-26T11:43:42.344Z,4.10
2018-03-26T11:46:09.994Z,4.13
2018-03-26T11:48:37.457Z,2.23
2018-03-26T11:51:05.016Z,2.47
2018-03-26T11:53:32.517Z,2.90
2018-03-26T11:56:00.750Z,1.87
2018-03-26T11:58:28.231Z,2.30
2018-03-26T12:00:55.759Z,2.20
2018-03-26T12:03:23.302Z,2.93
2018-03-26T12:05:51.522Z,5.63
2018-03-26T12:08:19.066Z,1.53
2018-03-26T12:10:46.709Z,2.13
2018-03-26T12:13:14.230Z,2.70
2018-03-26T12:15:42.027Z,3.10
2018-03-26T12:18:09.604Z,2.20
2018-03-26T12:20:37.256Z,2.77
2018-03-26T12:23:04.708Z,5.23
2018-03-26T12:25:33.013Z,13.33
2018-03-26T12:28:01.278Z,2.37
2018-03-26T12:30:28.788Z,4.07
2018-03-26T12:32:56.466Z,3.70
2018-03-26T12:35:23.964Z,5.50
2018-03-26T12:37:52.266Z,2.87
2018-03-26T12:40:19.832Z,2.80
2018-03-26T12:42:48.081Z,3.67
2018-03-26T12:45:16.525Z,3.00
2018-03-26T12:47:43.983Z,4.17
2018-03-26T12:50:11.746Z,4.57
2018-03-26T12:52:39.237Z,4.20
2018-03-26T12:55:06.763Z,3.07
2018-03-26T12:57:34.290Z,3.93
2018-03-26T13:00:01.821Z,3.50
2018-03-26T13:02:29.338Z,4.33
2018-03-26T13:04:56.863Z,3.40
2018-03-26T13:07:24.349Z,5.97
2018-03-26T13:09:51.894Z,4.80
2018-03-26T13:12:20.190Z,5.17
2018-03-26T13:14:48.512Z,7.73
2018-03-26T13:17:16.072Z,16.73
2018-03-26T13:19:45.341Z,5.60
2018-03-26T13:22:14.067Z,4.90
2018-03-26T13:24:41.582Z,4.77
2018-03-26T13:27:09.066Z,2.47
2018-03-26T13:29:36.593Z,2.53
2018-03-26T13:32:04.083Z,2.40
2018-03-26T13:34:32.708Z,2.80
2018-03-26T13:37:00.206Z,3.93
2018-03-26T13:39:27.698Z,4.70
2018-03-26T13:41:56.537Z,5.77
2018-03-26T13:44:24.734Z,5.80
2018-03-26T13:46:52.458Z,19.73
2018-03-26T13:49:19.963Z,5.33
2018-03-26T13:51:47.515Z,9.93
2018-03-26T13:54:15.080Z,4.70
2018-03-26T13:56:42.627Z,4.13
2018-03-26T13:59:11.116Z,3.60
2018-03-26T14:01:39.043Z,5.00
2018-03-26T14:04:06.585Z,4.00
2018-03-26T14:06:34.095Z,3.70
2018-03-26T14:09:01.619Z,4.50
2018-03-26T14:11:29.132Z,5.17
2018-03-26T14:13:56.692Z,4.33
2018-03-26T14:16:24.193Z,3.50
2018-03-26T14:18:51.700Z,7.07
2018-03-26T14:21:19.252Z,5.27
2018-03-26T14:23:47.540Z,4.13
2018-03-26T14:26:15.820Z,11.90
2018-03-26T14:28:44.079Z,4.00
2018-03-26T14:31:11.700Z,3.77
2018-03-26T14:33:39.216Z,4.43
2018-03-26T14:36:06.767Z,3.70
2018-03-26T14:38:34.282Z,4.43
2018-03-26T14:41:01.766Z,9.00
2018-03-26T14:43:29.328Z,3.83
2018-03-26T14:45:56.847Z,4.10
2018-03-26T14:48:25.128Z,3.90
2018-03-26T14:50:52.691Z,3.90
2018-03-26T14:53:20.966Z,4.33
2018-03-26T14:55:49.262Z,4.63
2018-03-26T14:58:17.527Z,5.10
2018-03-26T15:00:45.880Z,5.10
2018-03-26T15:03:13.380Z,3.87
2018-03-26T15:05:41.667Z,5.67
2018-03-26T15:08:09.221Z,10.33
2018-03-26T15:10:37.236Z,5.17
2018-03-26T15:13:04.705Z,4.30
2018-03-26T15:15:32.227Z,3.37
2018-03-26T15:17:59.767Z,4.77
2018-03-26T15:20:27.275Z,3.47
2018-03-26T15:22:54.778Z,3.87
2018-03-26T15:25:22.295Z,3.77
2018-03-26T15:27:49.819Z,2.90
2018-03-26T15:30:17.314Z,6.07
2018-03-26T15:32:45.619Z,3.90
2018-03-26T15:35:13.868Z,4.70
2018-03-26T15:37:42.612Z,5.23
2018-03-26T15:40:10.661Z,6.10
2018-03-26T15:42:38.133Z,3.40
2018-03-26T15:45:06.292Z,4.63
2018-03-26T15:47:33.885Z,5.33
2018-03-26T15:50:01.403Z,5.23
2018-03-26T15:52:28.916Z,4.20
2018-03-26T15:54:56.489Z,14.97
2018-03-26T15:57:23.975Z,10.83
2018-03-26T15:59:51.501Z,4.90
2018-03-26T16:02:19.135Z,2.57
2018-03-26T16:04:46.579Z,9.93
2018-03-26T16:07:14.882Z,3.40
2018-03-26T16:09:42.493Z,2.70
2018-03-26T16:12:10.067Z,3.07
2018-03-26T16:14:38.284Z,3.03
2018-03-26T16:17:05.826Z,3.17
2018-03-26T16:19:34.135Z,2.90
2018-03-26T16:22:03.160Z,4.00
2018-03-26T16:24:32.155Z,5.87
2018-03-26T16:26:59.695Z,8.00
2018-03-26T16:29:27.245Z,3.00
2018-03-26T16:31:55.524Z,4.20
2018-03-26T16:34:23.115Z,3.83
2018-03-26T16:36:51.384Z,3.63
2018-03-26T16:39:19.692Z,5.27
2018-03-26T16:41:47.422Z,6.27
2018-03-26T16:44:14.937Z,4.80
2018-03-26T16:46:42.495Z,5.93
2018-03-26T16:49:10.036Z,4.20
2018-03-26T16:51:37.624Z,4.63
2018-03-26T16:54:05.172Z,4.73
2018-03-26T16:56:32.771Z,3.53
2018-03-26T16:59:00.256Z,4.40
2018-03-26T17:01:28.637Z,4.40
2018-03-26T17:03:56.937Z,4.53
2018-03-26T17:06:24.489Z,4.67
2018-03-26T17:08:52.768Z,5.30
2018-03-26T17:11:21.057Z,5.47
2018-03-26T17:13:49.293Z,9.10
2018-03-26T17:16:16.813Z,4.83
2018-03-26T17:18:45.062Z,4.97
2018-03-26T17:21:12.643Z,5.10
2018-03-26T17:23:40.141Z,4.30
2018-03-26T17:26:08.390Z,6.10
2018-03-26T17:28:36.598Z,10.20
2018-03-26T17:31:04.837Z,23.37
2018-03-26T17:33:32.358Z,13.50
2018-03-26T17:36:00.967Z,9.60
2018-03-26T17:38:28.533Z,8.50
2018-03-26T17:40:56.118Z,17.83
2018-03-26T17:43:23.659Z,9.80
2018-03-26T17:45:51.234Z,10.50
2018-03-26T17:48:18.839Z,9.87
2018-03-26T17:50:46.306Z,9.17
2018-03-26T17:53:13.889Z,10.00
2018-03-26T17:55:41.393Z,9.67
2018-03-26T17:58:09.660Z,9.83
2018-03-26T18:00:37.180Z,9.80
2018-03-26T18:03:04.708Z,10.77
2018-03-26T18:05:32.301Z,11.03
2018-03-26T18:07:59.782Z,12.27
2018-03-26T18:10:27.302Z,11.13
2018-03-26T18:12:54.838Z,15.47
2018-03-26T18:15:22.333Z,11.27
2018-03-26T18:17:49.928Z,11.87
2018-03-26T18:20:17.445Z,16.73
2018-03-26T18:22:45.795Z,15.37
2018-03-26T18:25:14.994Z,20.40
2018-03-26T18:27:42.484Z,11.87
2018-03-26T18:30:10.082Z,11.70
2018-03-26T18:32:38.580Z,11.90
2018-03-26T18:35:06.076Z,17.17
2018-03-26T18:37:33.655Z,11.40
2018-03-26T18:40:01.078Z,10.67
2018-03-26T18:42:28.672Z,10.47
2018-03-26T18:44:56.428Z,16.33
2018-03-26T18:47:23.873Z,11.37
2018-03-26T18:49:51.426Z,17.03
2018-03-26T18:52:18.895Z,11.93
2018-03-26T18:54:46.464Z,15.30
2018-03-26T18:57:13.979Z,11.03
2018-03-26T18:59:41.567Z,12.33
2018-03-26T19:02:09.124Z,13.70
2018-03-26T19:04:37.430Z,11.90
2018-03-26T19:07:04.966Z,21.00
2018-03-26T19:09:33.627Z,11.80
2018-03-26T19:12:01.177Z,16.90
2018-03-26T19:14:28.724Z,14.23
2018-03-26T19:16:56.225Z,16.17
2018-03-26T19:19:24.010Z,17.33
2018-03-26T19:21:52.295Z,20.93
2018-03-26T19:24:19.780Z,18.70
2018-03-26T19:26:47.323Z,16.93
2018-03-26T19:29:14.791Z,16.50
2018-03-26T19:31:43.096Z,17.50
2018-03-26T19:34:10.617Z,21.83
2018-03-26T19:36:38.136Z,19.90
2018-03-26T19:39:05.716Z,23.83
2018-03-26T19:41:33.335Z,20.30
2018-03-26T19:44:01.654Z,18.10
2018-03-26T19:46:29.194Z,20.10
2018-03-26T19:48:56.939Z,21.73
2018-03-26T19:51:26.504Z,15.43
2018-03-26T19:53:54.905Z,19.27
2018-03-26T19:56:23.225Z,21.70
2018-03-26T19:58:50.790Z,21.87
2018-03-26T20:01:18.340Z,23.43
2018-03-26T20:03:46.634Z,21.93
2018-03-26T20:06:14.127Z,24.10
2018-03-26T20:08:41.665Z,26.53
2018-03-26T20:11:09.249Z,20.93
2018-03-26T20:13:36.810Z,23.13
2018-03-26T20:16:04.334Z,24.67
2018-03-26T20:18:32.617Z,22.97
2018-03-26T20:21:00.943Z,27.37
2018-03-26T20:23:30.278Z,31.60
2018-03-26T20:25:57.830Z,20.53
2018-03-26T20:28:25.360Z,25.57
2018-03-26T20:30:53.592Z,24.57
2018-03-26T20:33:21.150Z,23.13
2018-03-26T20:35:48.772Z,24.60
2018-03-26T20:38:16.451Z,18.43
2018-03-26T20:40:43.988Z,25.00
2018-03-26T20:43:11.587Z,25.03
2018-03-26T20:45:39.149Z,25.97
2018-03-26T20:48:06.704Z,21.47
2018-03-26T20:50:34.918Z,24.57
2018-03-26T20:53:02.320Z,25.27
2018-03-26T20:55:29.848Z,24.07
2018-03-26T20:57:57.417Z,21.20
2018-03-26T21:00:24.901Z,34.53
2018-03-26T21:02:53.173Z,20.73
2018-03-26T21:05:20.857Z,26.33
2018-03-26T21:07:48.437Z,31.20
2018-03-26T21:10:16.001Z,28.07
2018-03-26T21:12:43.973Z,30.10
2018-03-26T21:15:12.266Z,27.53
2018-03-26T21:17:40.550Z,35.40
2018-03-26T21:20:08.154Z,27.30
2018-03-26T21:22:35.653Z,36.87
2018-03-26T21:25:03.919Z,24.83
2018-03-26T21:27:32.260Z,28.63
2018-03-26T21:29:59.889Z,28.57
2018-03-26T21:32:27.459Z,37.60
2018-03-26T21:34:56.112Z,39.17
2018-03-26T21:37:23.599Z,35.33
2018-03-26T21:39:51.139Z,38.43
2018-03-26T21:42:19.554Z,50.33
2018-03-26T21:44:47.116Z,43.50
2018-03-26T21:47:17.536Z,41.97
2018-03-26T21:49:45.046Z,49.47
2018-03-26T21:52:12.582Z,44.50
2018-03-26T21:54:40.032Z,48.83
2018-03-26T21:57:07.579Z,45.43
2018-03-26T21:59:35.854Z,49.03
2018-03-26T22:02:03.579Z,53.13
2018-03-26T22:04:31.155Z,46.73
2018-03-26T22:06:58.613Z,53.00
2018-03-26T22:09:26.094Z,49.80
2018-03-26T22:11:53.620Z,52.27
2018-03-26T22:14:21.112Z,49.53
2018-03-26T22:16:48.664Z,50.23
2018-03-26T22:19:16.112Z,47.77
2018-03-26T22:21:43.639Z,57.60
2018-03-26T22:24:11.190Z,58.40
2018-03-26T22:26:38.654Z,52.73
2018-03-26T22:29:06.968Z,52.17
2018-03-26T22:31:34.464Z,49.23
2018-03-26T22:34:02.686Z,48.50
2018-03-26T22:36:30.163Z,56.53
2018-03-26T22:38:58.401Z,58.20
2018-03-26T22:41:25.996Z,59.50
2018-03-26T22:43:53.438Z,54.90
2018-03-26T22:46:20.966Z,53.93
2018-03-26T22:48:48.455Z,51.00
2018-03-26T22:51:15.950Z,56.77
2018-03-26T22:53:43.414Z,61.23
2018-03-26T22:56:10.915Z,57.33
2018-03-26T22:58:38.400Z,53.37
2018-03-26T23:01:05.918Z,51.10
2018-03-26T23:03:33.398Z,61.00
2018-03-26T23:06:00.932Z,58.50
2018-03-26T23:08:28.459Z,53.93
2018-03-26T23:10:55.956Z,58.63
2018-03-26T23:13:23.512Z,60.37
2018-03-26T23:15:51.807Z,55.93
2018-03-26T23:18:19.371Z,65.17
2018-03-26T23:20:47.011Z,54.93
2018-03-26T23:23:14.565Z,60.23
2018-03-26T23:25:42.207Z,59.17
2018-03-26T23:28:09.688Z,56.00
2018-03-26T23:30:37.170Z,61.07
2018-03-26T23:33:04.722Z,72.07
2018-03-26T23:35:32.245Z,60.97
2018-03-26T23:37:59.705Z,56.80
2018-03-26T23:40:27.433Z,61.57
2018-03-26T23:42:55.689Z,62.77
2018-03-26T23:45:23.193Z,62.80
2018-03-26T23:47:50.732Z,80.30
2018-03-26T23:50:18.245Z,63.63
2018-03-26T23:52:45.774Z,56.30
2018-03-26T23:55:13.274Z,67.63
2018-03-26T23:57:40.840Z,65.70
